Time;durP1;ratioP1;P1;durP2;ratioP2;P2;SDS_P1;SDS_P2;PMS_P1;PMS_P2;Temp;Humidity;BMP_temperature;BMP_pressure;BME280_temperature;BME280_humidity;BME280_pressure;Samples;Min_cycle;Max_cycle;Signal;HPM_P1;HPM_P2
2023/03/21 00:00:38;;;;;;;;;;;;;;;17.00;46.89;100920.22;4997000;28;1105;-52
2023/03/21 00:03:03;;;;;;;;;;;;;;;16.47;46.88;100919.53;4996964;28;1126;-52
2023/03/21 00:05:29;;;;;;;;;;;;;;;16.40;46.74;100909.59;4997055;28;1064;-48
2023/03/21 00:07:54;;;;;;;;;;;;;;;17.05;46.67;100909.22;4996716;28;1171;-52
2023/03/21 00:10:20;;;;;;;;;;;;;;;16.36;47.13;100910.41;4997139;28;1159;-51
2023/03/21 00:12:49;;;;;;;;;;;;;;;16.26;46.48;100908.47;4996770;28;1159;-50
2023/03/21 00:15:17;;;;;;;;;;;;;;;17.59;45.73;100899.59;4996449;28;1918;-49
2023/03/21 00:17:43;;;;;;;;;;;;;;;16.57;46.99;100897.59;4996187;28;1129;-50
2023/03/21 00:20:14;;;;;;;;;;;;;;;16.17;46.90;100899.09;4997287;28;1168;-50
2023/03/21 00:22:39;;;;;;;;;;;;;;;17.30;46.50;100893.03;4996594;28;1029;-52
2023/03/21 00:25:05;;;;;;;;;;;;;;;16.47;47.19;100887.41;4996598;28;1374;-47
2023/03/21 00:27:32;;;;;;;;;;;;;;;16.91;47.03;100880.63;4996680;28;882;-51
2023/03/21 00:29:58;;;;;;;;;;;;;;;17.26;46.54;100895.50;4996597;28;1215;-50
2023/03/21 00:32:23;;;;;;;;;;;;;;;16.64;47.03;100891.84;5027927;28;1148;-48
2023/03/21 00:34:49;;;;;;;;;;;;;;;16.41;46.33;100872.84;4996697;28;1985;-52
2023/03/21 00:37:17;;;;;;;;;;;;;;;16.22;46.01;100875.22;4995110;28;1054;-51
2023/03/21 00:39:46;;;;;;;;;;;;;;;17.56;45.85;100869.91;4996664;28;855;-51
2023/03/21 00:42:12;;;;;;;;;;;;;;;16.57;47.37;100870.94;4996367;28;1013;-49
2023/03/21 00:44:39;;;;;;;;;;;;;;;16.28;46.66;100872.50;5011408;28;1121;-52
2023/03/21 00:47:05;;;;;;;;;;;;;;;16.11;46.21;100867.25;4996121;28;1084;-51
2023/03/21 00:49:32;;;;;;;;;;;;;;;17.34;45.94;100869.41;4995191;28;1025;-52
2023/03/21 00:52:01;;;;;;;;;;;;;;;16.48;47.00;100874.50;5006638;28;929;-52
2023/03/21 00:54:26;;;;;;;;;;;;;;;16.17;46.55;100868.91;4996054;28;1961;-51
2023/03/21 00:56:52;;;;;;;;;;;;;;;17.13;46.57;100874.88;4996764;28;1212;-53
2023/03/21 00:59:17;;;;;;;;;;;;;;;16.40;47.13;100865.69;4995224;28;1288;-53
2023/03/21 01:01:45;;;;;;;;;;;;;;;17.40;46.04;100871.88;4995269;28;1045;-50
2023/03/21 01:04:13;;;;;;;;;;;;;;;16.89;47.05;100866.38;4996019;28;967;-53
2023/03/21 01:06:39;;;;;;;;;;;;;;;16.51;46.72;100871.19;4996459;28;1127;-49
2023/03/21 01:09:25;;;;;;;;;;;;;;;16.25;46.47;100863.72;5011373;28;1212;-52
2023/03/21 01:11:51;;;;;;;;;;;;;;;16.71;46.95;100860.25;4996041;28;1258;-53
2023/03/21 01:14:16;;;;;;;;;;;;;;;17.54;45.95;100854.78;4996113;28;1985;-53
2023/03/21 01:16:42;;;;;;;;;;;;;;;18.71;43.76;100847.13;4996237;28;1140;-53
2023/03/21 01:19:08;;;;;;;;;;;;;;;17.18;46.90;100857.56;4999718;28;1207;-52
2023/03/21 01:21:34;;;;;;;;;;;;;;;16.67;47.19;100850.91;5000107;28;1072;-51
2023/03/21 01:24:00;;;;;;;;;;;;;;;16.78;47.33;100854.50;4999420;28;1055;-53
2023/03/21 01:26:26;;;;;;;;;;;;;;;16.85;47.17;100854.25;4999808;28;1429;-52
2023/03/21 01:28:51;;;;;;;;;;;;;;;16.52;47.23;100845.41;5000752;28;1088;-53
2023/03/21 01:31:17;;;;;;;;;;;;;;;16.31;46.26;100844.53;4999960;28;1044;-53
2023/03/21 01:33:42;;;;;;;;;;;;;;;16.87;46.66;100855.63;4999544;28;1902;-52
2023/03/21 01:36:08;;;;;;;;;;;;;;;16.54;47.31;100845.97;5000061;28;1076;-50
2023/03/21 01:38:34;;;;;;;;;;;;;;;16.31;46.55;100841.78;4998332;28;1219;-52
2023/03/21 01:41:03;;;;;;;;;;;;;;;17.23;46.52;100832.84;4999953;28;1005;-49
2023/03/21 01:43:34;;;;;;;;;;;;;;;16.46;47.21;100836.34;4998164;28;1201;-52
2023/03/21 01:46:20;;;;;;;;;;;;;;;17.47;46.37;100832.25;4997849;28;1313;-46
2023/03/21 01:49:07;;;;;;;;;;;;;;;16.73;47.23;100841.63;4998516;28;1260;-53
2023/03/21 01:51:33;;;;;;;;;;;;;;;16.41;46.86;100828.94;5014357;28;1108;-53
2023/03/21 01:54:00;;;;;;;;;;;;;;;17.09;46.64;100821.59;4999072;28;1973;-49
2023/03/21 01:56:33;;;;;;;;;;;;;;;16.53;47.08;100828.66;4998140;28;1214;-53
2023/03/21 01:59:07;;;;;;;;;;;;;;;18.20;45.17;100817.16;5030960;28;1237;-52
2023/03/21 02:01:56;;;;;;;;;;;;;;;16.86;46.94;100822.94;5002105;28;1161;-52
2023/03/21 02:04:26;;;;;;;;;;;;;;;16.56;46.91;100821.81;4981873;28;1598;-51
2023/03/21 02:07:13;;;;;;;;;;;;;;;16.72;47.01;100820.72;4997489;28;1353;-51
2023/03/21 02:09:45;;;;;;;;;;;;;;;16.85;47.09;100838.59;4982520;28;1208;-53
2023/03/21 02:12:15;;;;;;;;;;;;;;;16.42;46.92;100847.06;5015098;28;1160;-52
2023/03/21 02:14:40;;;;;;;;;;;;;;;17.30;46.25;100833.38;4997455;28;1999;-52
2023/03/21 02:17:22;;;;;;;;;;;;;;;16.41;47.35;100842.66;4997646;28;960;-53
2023/03/21 02:20:10;;;;;;;;;;;;;;;16.36;46.30;100841.81;4997769;28;1212;-52
2023/03/21 02:22:39;;;;;;;;;;;;;;;16.76;47.02;100840.25;4997863;28;1324;-53
2023/03/21 02:25:28;;;;;;;;;;;;;;;16.33;47.00;100826.72;4997426;28;1159;-52
2023/03/21 02:27:56;;;;;;;;;;;;;;;16.48;47.33;100825.94;5022918;28;1271;-53
2023/03/21 02:30:27;;;;;;;;;;;;;;;16.88;46.65;100826.22;4997531;28;1313;-51
2023/03/21 02:33:10;;;;;;;;;;;;;;;16.30;47.21;100827.25;4978304;28;1258;-53
2023/03/21 02:35:35;;;;;;;;;;;;;;;16.18;46.67;100826.66;4981085;28;1906;-53
2023/03/21 02:38:37;;;;;;;;;;;;;;;16.58;47.16;100834.16;4997078;28;1812;-52
2023/03/21 02:41:15;;;;;;;;;;;;;;;16.51;47.21;100825.38;4970816;28;1328;-53
2023/03/21 02:43:45;;;;;;;;;;;;;;;17.51;45.85;100827.84;4989939;28;1161;-53
2023/03/21 02:46:11;;;;;;;;;;;;;;;16.58;46.96;100833.34;4977478;28;1199;-53
2023/03/21 02:48:38;;;;;;;;;;;;;;;16.91;47.27;100828.47;4996890;28;1429;-53
2023/03/21 02:51:04;;;;;;;;;;;;;;;16.63;47.38;100830.59;5005827;28;1371;-53
2023/03/21 02:53:33;;;;;;;;;;;;;;;16.30;47.14;100824.50;4979490;28;1906;-53
2023/03/21 02:56:02;;;;;;;;;;;;;;;17.26;46.38;100819.38;4977995;28;1272;-53
2023/03/21 02:58:29;;;;;;;;;;;;;;;16.55;47.09;100822.91;4996519;28;1127;-52
2023/03/21 03:00:57;;;;;;;;;;;;;;;17.08;46.87;100814.44;4996974;28;1154;-50
2023/03/21 03:03:38;;;;;;;;;;;;;;;17.05;46.89;100812.25;4996861;28;1537;-53
2023/03/21 03:06:08;;;;;;;;;;;;;;;16.47;46.96;100809.72;4996825;28;1115;-52
2023/03/21 03:08:41;;;;;;;;;;;;;;;16.31;46.46;100809.69;5013247;28;1048;-52
2023/03/21 03:11:16;;;;;;;;;;;;;;;16.05;46.34;100812.34;4997004;28;1049;-53
2023/03/21 03:13:41;;;;;;;;;;;;;;;16.94;46.59;100814.16;4997806;28;1902;-53
2023/03/21 03:16:10;;;;;;;;;;;;;;;16.27;47.05;100815.97;4997377;28;1072;-52
2023/03/21 03:18:49;;;;;;;;;;;;;;;16.20;46.44;100814.34;4997701;28;1072;-53
2023/03/21 03:21:15;;;;;;;;;;;;;;;16.96;46.67;100800.16;4983877;28;1059;-53
2023/03/21 03:23:41;;;;;;;;;;;;;;;16.30;47.07;100808.06;5006760;28;1152;-53
2023/03/21 03:26:09;;;;;;;;;;;;;;;16.11;46.54;100812.38;4997758;28;1017;-52
2023/03/21 03:28:37;;;;;;;;;;;;;;;16.83;46.94;100812.50;5006736;28;1398;-51
2023/03/21 03:31:10;;;;;;;;;;;;;;;16.27;46.92;100815.97;4980958;28;1543;-50
2023/03/21 03:33:42;;;;;;;;;;;;;;;17.68;45.67;100808.28;4981144;28;1914;-52
2023/03/21 03:36:09;;;;;;;;;;;;;;;16.73;47.16;100811.41;4976866;28;1384;-52
2023/03/21 03:38:35;;;;;;;;;;;;;;;17.17;46.90;100817.47;4996294;28;1145;-52
2023/03/21 03:41:02;;;;;;;;;;;;;;;17.72;45.55;100832.19;4996649;28;874;-48
2023/03/21 03:43:49;;;;;;;;;;;;;;;16.72;47.00;100826.22;4981920;28;1422;-52
2023/03/21 03:46:39;;;;;;;;;;;;;;;16.45;46.52;100818.22;4980255;28;1174;-51
2023/03/21 03:49:09;;;;;;;;;;;;;;;16.92;46.95;100813.63;5002123;28;1613;-50
2023/03/21 03:51:36;;;;;;;;;;;;;;;16.38;47.08;100817.66;4979250;28;1383;-51
2023/03/21 03:54:29;;;;;;;;;;;;;;;17.31;46.44;100813.03;4996112;28;1967;-53
2023/03/21 03:56:56;;;;;;;;;;;;;;;16.72;47.16;100817.19;4976845;28;1582;-51
2023/03/21 03:59:23;;;;;;;;;;;;;;;16.32;47.20;100807.78;4979342;28;1132;-51
2023/03/21 04:01:57;;;;;;;;;;;;;;;16.99;46.87;100808.69;4996057;28;1367;-52
2023/03/21 04:04:28;;;;;;;;;;;;;;;16.74;47.09;100823.19;5012298;28;1472;-52
2023/03/21 04:06:54;;;;;;;;;;;;;;;16.30;47.10;100815.44;4995544;28;1192;-52
2023/03/21 04:09:23;;;;;;;;;;;;;;;17.31;46.10;100813.03;4995720;28;1441;-52
2023/03/21 04:11:49;;;;;;;;;;;;;;;16.54;47.16;100813.03;4996677;28;1121;-53
2023/03/21 04:14:15;;;;;;;;;;;;;;;16.18;46.95;100801.97;4995574;28;1910;-50
2023/03/21 04:16:42;;;;;;;;;;;;;;;16.97;46.58;100799.06;4995643;28;1411;-51
2023/03/21 04:19:08;;;;;;;;;;;;;;;16.35;47.21;100791.56;5011643;28;1160;-55
2023/03/21 04:21:34;;;;;;;;;;;;;;;16.40;47.01;100799.00;4995454;28;1069;-57
2023/03/21 04:24:00;;;;;;;;;;;;;;;17.01;46.65;100792.75;4995169;28;1867;-56
2023/03/21 04:26:31;;;;;;;;;;;;;;;16.39;47.04;100808.34;4995591;28;1143;-57
2023/03/21 04:29:15;;;;;;;;;;;;;;;16.24;46.69;100807.22;4995873;28;1249;-56
2023/03/21 04:32:15;;;;;;;;;;;;;;;16.73;47.28;100825.13;4985441;28;1430;-55
2023/03/21 04:34:48;;;;;;;;;;;;;;;16.25;46.84;100819.81;4994918;28;2031;-55
2023/03/21 04:37:16;;;;;;;;;;;;;;;16.12;46.33;100816.75;4995305;28;1163;-53
2023/03/21 04:39:41;;;;;;;;;;;;;;;16.22;46.45;100819.53;4994979;28;1205;-55
2023/03/21 04:42:07;;;;;;;;;;;;;;;16.83;46.94;100829.81;4995190;28;1135;-55
2023/03/21 04:44:33;;;;;;;;;;;;;;;16.39;46.66;100825.59;4994705;28;1384;-53
2023/03/21 04:46:58;;;;;;;;;;;;;;;17.66;45.56;100821.50;4996557;28;1423;-59
2023/03/21 04:49:24;;;;;;;;;;;;;;;16.71;47.38;100826.50;4997005;28;1092;-60
2023/03/21 04:51:50;;;;;;;;;;;;;;;16.32;46.88;100829.72;5012296;28;1632;-58
2023/03/21 04:54:19;;;;;;;;;;;;;;;16.57;47.15;100828.94;4999168;28;1967;-59
2023/03/21 04:56:45;;;;;;;;;;;;;;;16.50;47.19;100833.88;4999478;28;1272;-62
2023/03/21 04:59:12;;;;;;;;;;;;;;;16.22;46.90;100831.34;4999277;28;1344;-60
2023/03/21 05:01:39;;;;;;;;;;;;;;;17.18;46.03;100825.44;4998738;28;1455;-56
2023/03/21 05:04:05;;;;;;;;;;;;;;;16.33;47.41;100821.22;5000461;28;1092;-60
2023/03/21 05:06:33;;;;;;;;;;;;;;;16.05;46.71;100819.78;4998204;28;1502;-50
2023/03/21 05:08:58;;;;;;;;;;;;;;;17.14;46.07;100818.84;4999886;28;1307;-48
2023/03/21 05:11:25;;;;;;;;;;;;;;;16.36;47.35;100814.38;4998487;28;1148;-50
2023/03/21 05:13:51;;;;;;;;;;;;;;;16.05;46.92;100815.09;5031568;28;1945;-45
2023/03/21 05:16:16;;;;;;;;;;;;;;;16.04;46.54;100818.94;4999654;28;1067;-50
2023/03/21 05:18:43;;;;;;;;;;;;;;;16.73;46.82;100827.88;4998779;28;1247;-45
2023/03/21 05:21:17;;;;;;;;;;;;;;;16.16;47.05;100826.94;4999104;28;1131;-49
2023/03/21 05:23:52;;;;;;;;;;;;;;;17.77;45.32;100834.91;4998714;28;1204;-44
2023/03/21 05:26:19;;;;;;;;;;;;;;;16.63;47.17;100818.81;4998915;28;1199;-47
2023/03/21 05:28:54;;;;;;;;;;;;;;;16.30;46.85;100812.69;5000092;28;1037;-48
2023/03/21 05:31:20;;;;;;;;;;;;;;;16.41;47.13;100801.47;4998122;28;1138;-48
2023/03/21 05:33:50;;;;;;;;;;;;;;;16.50;47.23;100809.19;4998419;28;1883;-55
2023/03/21 05:36:17;;;;;;;;;;;;;;;16.19;47.02;100809.13;4998083;28;1230;-55
2023/03/21 05:38:44;;;;;;;;;;;;;;;17.01;46.69;100820.22;5014867;28;1609;-55
2023/03/21 05:41:11;;;;;;;;;;;;;;;16.34;47.20;100822.88;4999191;28;1049;-55
2023/03/21 05:43:36;;;;;;;;;;;;;;;18.02;44.96;100824.13;5018170;28;1153;-55
2023/03/21 05:46:02;;;;;;;;;;;;;;;17.27;46.64;100825.69;4997306;28;1315;-55
2023/03/21 05:48:29;;;;;;;;;;;;;;;16.48;47.33;100827.81;5013263;28;1343;-54
2023/03/21 05:51:12;;;;;;;;;;;;;;;17.54;46.17;100827.28;4996877;28;1238;-53
2023/03/21 05:53:37;;;;;;;;;;;;;;;16.66;47.54;100835.56;4996071;28;1902;-55
2023/03/21 05:56:03;;;;;;;;;;;;;;;16.44;46.94;100846.78;4998494;28;1176;-53
2023/03/21 05:58:44;;;;;;;;;;;;;;;17.03;47.03;100855.66;5030027;28;1228;-55
2023/03/21 06:01:09;;;;;;;;;;;;;;;16.42;47.19;100852.53;4997904;28;1056;-53
2023/03/21 06:03:38;;;;;;;;;;;;;;;16.51;47.25;100854.72;4996272;28;1149;-55
2023/03/21 06:06:14;;;;;;;;;;;;;;;16.67;47.12;100859.16;4998084;28;1121;-55
2023/03/21 06:08:49;;;;;;;;;;;;;;;16.25;47.26;100846.44;4997014;28;1236;-53
2023/03/21 06:11:20;;;;;;;;;;;;;;;17.18;45.56;100846.56;4996604;28;1111;-55
2023/03/21 06:13:46;;;;;;;;;;;;;;;16.95;45.90;100846.03;5012550;28;1983;-58
2023/03/21 06:16:11;;;;;;;;;;;;;;;16.61;46.70;100846.53;4996727;28;1107;-55
2023/03/21 06:18:37;;;;;;;;;;;;;;;16.38;47.51;100839.59;4996707;28;1207;-56
2023/03/21 06:21:21;;;;;;;;;;;;;;;16.17;47.85;100839.56;4997826;28;962;-54
2023/03/21 06:23:50;;;;;;;;;;;;;;;16.05;48.11;100837.03;4996249;28;1239;-56
2023/03/21 06:26:18;;;;;;;;;;;;;;;15.85;48.64;100839.69;4998022;28;1069;-56
2023/03/21 06:28:44;;;;;;;;;;;;;;;15.73;49.04;100842.63;4996441;28;1367;-53
2023/03/21 06:31:10;;;;;;;;;;;;;;;15.64;49.13;100846.94;4997521;28;1066;-53
2023/03/21 06:33:35;;;;;;;;;;;;;;;15.54;49.38;100845.81;4993829;28;1910;-52
2023/03/21 06:36:01;;;;;;;;;;;;;;;15.41;49.95;100846.28;4991123;28;1233;-53
2023/03/21 06:38:27;;;;;;;;;;;;;;;15.35;49.69;100859.13;4996533;28;1400;-54
2023/03/21 06:40:53;;;;;;;;;;;;;;;15.60;49.62;100856.78;4991987;28;1287;-56
2023/03/21 06:43:20;;;;;;;;;;;;;;;17.09;45.61;100849.88;4997609;28;1199;-57
2023/03/21 06:45:45;;;;;;;;;;;;;;;16.18;47.74;100848.63;4953517;28;1256425;-54
2023/03/21 06:48:11;;;;;;;;;;;;;;;15.82;48.67;100851.19;4997309;28;1152;-51
2023/03/21 06:50:44;;;;;;;;;;;;;;;15.63;49.19;100837.09;4998330;28;1041;-54
2023/03/21 06:53:10;;;;;;;;;;;;;;;15.46;49.57;100840.00;5029056;28;1604;-52
2023/03/21 06:55:55;;;;;;;;;;;;;;;15.33;49.86;100844.88;4995669;28;1100;-48
2023/03/21 06:58:21;;;;;;;;;;;;;;;15.23;50.29;100844.78;5013253;28;1197;-50
2023/03/21 07:00:47;;;;;;;;;;;;;;;16.14;48.09;100844.75;4997089;28;1113;-49
2023/03/21 07:03:12;;;;;;;;;;;;;;;17.33;45.23;100832.81;4997026;28;1205;-53
2023/03/21 07:05:38;;;;;;;;;;;;;;;16.32;47.33;100825.06;4997703;28;1161;-52
2023/03/21 07:08:04;;;;;;;;;;;;;;;15.83;48.86;100844.63;4996838;28;1368;-53
2023/03/21 07:10:32;;;;;;;;;;;;;;;15.65;49.38;100841.19;4996245;28;1528;-54
2023/03/21 07:13:04;;;;;;;;;;;;;;;15.47;49.65;100839.72;4996597;28;1117;-55
2023/03/21 07:15:36;;;;;;;;;;;;;;;15.34;50.01;100832.78;5028505;28;2044;-52
2023/03/21 07:18:06;;;;;;;;;;;;;;;16.03;48.88;100838.41;4995835;28;1198;-51
2023/03/21 07:20:32;;;;;;;;;;;;;;;17.20;45.70;100845.19;4996654;28;1181;-54
2023/03/21 07:22:57;;;;;;;;;;;;;;;16.15;48.27;100855.47;4991568;28;1071;-52
2023/03/21 07:25:26;;;;;;;;;;;;;;;15.77;49.50;100851.13;4989118;28;1451;-52
2023/03/21 07:27:51;;;;;;;;;;;;;;;15.56;49.67;100835.41;5029436;28;1235;-52
2023/03/21 07:30:17;;;;;;;;;;;;;;;15.42;50.12;100831.50;4997399;28;1083;-53
2023/03/21 07:32:44;;;;;;;;;;;;;;;15.28;50.27;100839.34;4995695;28;1632;-55
2023/03/21 07:35:11;;;;;;;;;;;;;;;16.50;47.61;100837.44;4996022;28;1915;-49
2023/03/21 07:37:36;;;;;;;;;;;;;;;16.99;46.11;100833.41;5012379;28;1115;-54
2023/03/21 07:40:06;;;;;;;;;;;;;;;16.05;48.39;100830.75;5020107;28;1262;-53
2023/03/21 07:42:33;;;;;;;;;;;;;;;15.71;49.49;100833.84;4986741;28;1236;-52
2023/03/21 07:44:59;;;;;;;;;;;;;;;15.50;49.83;100832.88;4996010;28;1165;-53
2023/03/21 07:47:31;;;;;;;;;;;;;;;15.71;49.36;100823.72;4995814;28;1218;-51
2023/03/21 07:49:57;;;;;;;;;;;;;;;17.23;45.58;100816.34;4997372;28;1170;-52
2023/03/21 07:52:23;;;;;;;;;;;;;;;16.30;47.87;100816.28;4997327;28;1107;-52
2023/03/21 07:54:48;;;;;;;;;;;;;;;15.83;49.30;100817.22;4996339;28;1911;-55
2023/03/21 07:57:14;;;;;;;;;;;;;;;15.62;49.45;100816.25;4997054;28;1032;-53
2023/03/21 07:59:39;;;;;;;;;;;;;;;15.51;49.87;100807.16;4991795;28;1095;-53
2023/03/21 08:02:06;;;;;;;;;;;;;;;15.69;49.60;100801.19;4977643;28;1248;-52
2023/03/21 08:04:31;;;;;;;;;;;;;;;17.15;45.90;100797.69;4995935;28;1061;-54
2023/03/21 08:06:57;;;;;;;;;;;;;;;16.28;47.89;100799.25;4996903;28;1045;-51
2023/03/21 08:09:22;;;;;;;;;;;;;;;15.80;49.35;100798.56;4997018;28;1220;-53
2023/03/21 08:11:48;;;;;;;;;;;;;;;15.59;49.64;100801.16;4984808;28;1160;-53
2023/03/21 08:14:13;;;;;;;;;;;;;;;15.43;50.05;100802.16;4994297;28;1902;-53
2023/03/21 08:16:39;;;;;;;;;;;;;;;15.85;49.44;100818.59;4996687;28;1125;-50
2023/03/21 08:19:04;;;;;;;;;;;;;;;17.23;45.88;100828.16;4990561;28;1084;-49
2023/03/21 08:21:30;;;;;;;;;;;;;;;16.31;47.84;100828.88;4978528;28;1025;-47
2023/03/21 08:23:55;;;;;;;;;;;;;;;15.87;48.95;100826.56;4977027;28;1295;-50
2023/03/21 08:26:23;;;;;;;;;;;;;;;15.60;49.89;100819.25;4977133;28;1322;-50
2023/03/21 08:28:49;;;;;;;;;;;;;;;15.44;50.14;100826.56;4977335;28;1295;-44
2023/03/21 08:31:16;;;;;;;;;;;;;;;16.15;48.51;100821.72;4989851;28;907;-50
2023/03/21 08:33:42;;;;;;;;;;;;;;;17.24;45.87;100810.56;4995983;28;1977;-55
2023/03/21 08:36:08;;;;;;;;;;;;;;;16.19;48.09;100809.13;5028017;28;1235;-57
2023/03/21 08:38:33;;;;;;;;;;;;;;;15.81;49.39;100809.25;4977956;28;985;-51
2023/03/21 08:40:59;;;;;;;;;;;;;;;15.63;49.65;100812.44;4988642;28;1211;-52
2023/03/21 08:43:25;;;;;;;;;;;;;;;15.49;50.20;100828.53;4996196;28;1220;-49
2023/03/21 08:45:51;;;;;;;;;;;;;;;15.35;50.35;100833.63;4996619;28;1223;-52
2023/03/21 08:48:16;;;;;;;;;;;;;;;16.20;48.71;100838.19;4995598;28;1060;-48
2023/03/21 08:50:42;;;;;;;;;;;;;;;16.96;46.38;100820.22;4996132;28;1016;-48
2023/03/21 08:53:07;;;;;;;;;;;;;;;16.01;48.71;100822.22;4996111;28;1385;-51
2023/03/21 08:55:33;;;;;;;;;;;;;;;15.68;49.70;100824.25;4995819;28;1914;-51
2023/03/21 08:57:59;;;;;;;;;;;;;;;15.48;50.08;100827.69;4976572;28;1189;-45
2023/03/21 09:00:26;;;;;;;;;;;;;;;15.35;50.63;100828.16;4993892;28;1220;-50
2023/03/21 09:02:53;;;;;;;;;;;;;;;16.05;48.74;100809.63;4996296;28;1032;-49
2023/03/21 09:05:18;;;;;;;;;;;;;;;17.16;45.97;100802.06;4996433;28;1279;-47
2023/03/21 09:07:44;;;;;;;;;;;;;;;16.17;48.38;100800.31;4985283;28;903;-50
2023/03/21 09:10:11;;;;;;;;;;;;;;;15.73;49.50;100805.06;4989604;28;1061;-50
2023/03/21 09:12:36;;;;;;;;;;;;;;;15.57;49.91;100803.31;4996446;28;1211;-50
2023/03/21 09:15:03;;;;;;;;;;;;;;;15.34;50.44;100810.88;4995837;28;1918;-49
2023/03/21 09:17:30;;;;;;;;;;;;;;;15.55;50.28;100819.22;4995815;28;1036;-50
2023/03/21 09:19:58;;;;;;;;;;;;;;;17.12;46.33;100817.47;4997945;28;874;-50
2023/03/21 09:22:24;;;;;;;;;;;;;;;16.46;47.54;100814.38;4996137;28;1072;-51
2023/03/21 09:24:49;;;;;;;;;;;;;;;15.87;49.10;100812.84;4996029;28;958;-50
2023/03/21 09:27:16;;;;;;;;;;;;;;;15.63;50.00;100816.00;4995436;28;1057;-50
2023/03/21 09:29:43;;;;;;;;;;;;;;;15.51;49.91;100826.31;4983637;28;1106;-52
2023/03/21 09:32:12;;;;;;;;;;;;;;;15.97;49.21;100825.78;4995751;28;878;-50
2023/03/21 09:34:39;;;;;;;;;;;;;;;17.06;46.29;100820.22;4996134;28;1913;-52
2023/03/21 09:37:08;;;;;;;;;;;;;;;16.10;48.50;100829.94;4996206;28;1196;-49
2023/03/21 09:39:35;;;;;;;;;;;;;;;15.71;49.60;100831.94;4997778;28;1061;-52
2023/03/21 09:42:24;;;;;;;;;;;;;;;15.54;50.11;100831.28;4999226;28;1092;-53
2023/03/21 09:45:00;;;;;;;;;;;;;;;15.63;49.87;100826.13;5011271;28;1073;-53
2023/03/21 09:47:33;;;;;;;;;;;;;;;17.23;45.89;100824.59;4985156;28;1088;-54
2023/03/21 09:50:19;;;;;;;;;;;;;;;16.29;48.15;100824.78;4999257;28;1068;-51
2023/03/21 09:52:46;;;;;;;;;;;;;;;15.80;49.36;100831.47;5030831;28;1123;-50
2023/03/21 09:55:20;;;;;;;;;;;;;;;15.56;50.22;100831.84;4998792;28;1902;-51
2023/03/21 09:57:56;;;;;;;;;;;;;;;15.41;50.34;100832.56;4999538;28;1100;-51
2023/03/21 10:00:29;;;;;;;;;;;;;;;16.99;46.60;100838.91;5030378;28;1127;-50
2023/03/21 10:02:58;;;;;;;;;;;;;;;16.31;48.16;100834.38;5030299;28;1052;-52
2023/03/21 10:05:30;;;;;;;;;;;;;;;15.81;49.54;100835.81;5030065;28;1103;-53
2023/03/21 10:08:03;;;;;;;;;;;;;;;15.58;50.12;100843.34;4999176;28;1203;-52
2023/03/21 10:10:36;;;;;;;;;;;;;;;15.42;50.45;100831.50;4991046;28;1144;-49
2023/03/21 10:13:02;;;;;;;;;;;;;;;15.75;49.94;100832.22;4995046;28;1130;-51
2023/03/21 10:15:27;;;;;;;;;;;;;;;17.16;46.06;100833.13;5030324;28;1972;-47
2023/03/21 10:17:57;;;;;;;;;;;;;;;16.17;48.32;100833.25;4998748;28;1103;-50
2023/03/21 10:20:24;;;;;;;;;;;;;;;15.76;49.52;100844.03;5017286;28;967;-51
2023/03/21 10:22:51;;;;;;;;;;;;;;;15.51;50.32;100832.63;4998612;28;1069;-52
2023/03/21 10:25:18;;;;;;;;;;;;;;;16.06;49.13;100835.13;5029703;28;1117;-52
2023/03/21 10:27:43;;;;;;;;;;;;;;;17.21;46.14;100830.38;4998594;28;1044;-52
2023/03/21 10:30:11;;;;;;;;;;;;;;;16.20;48.58;100844.50;4998782;28;1117;-53
2023/03/21 10:32:37;;;;;;;;;;;;;;;15.82;49.31;100840.22;5035517;28;1215;-50
2023/03/21 10:35:03;;;;;;;;;;;;;;;15.60;49.82;100834.88;5030428;28;1911;-49
2023/03/21 10:37:29;;;;;;;;;;;;;;;15.45;50.29;100832.88;4998683;28;1408;-51
2023/03/21 10:39:54;;;;;;;;;;;;;;;16.16;48.71;100843.41;5021933;28;1194;-52
2023/03/21 10:42:31;;;;;;;;;;;;;;;17.01;46.41;100824.88;4997194;28;1256;-52
2023/03/21 10:44:57;;;;;;;;;;;;;;;16.02;49.06;100837.59;4998398;28;1223;-52
2023/03/21 10:47:26;;;;;;;;;;;;;;;15.70;49.54;100830.28;4998399;28;1151;-52
2023/03/21 10:49:52;;;;;;;;;;;;;;;15.54;50.23;100829.38;4984696;28;1228;-52
2023/03/21 10:52:19;;;;;;;;;;;;;;;15.40;50.42;100828.16;4984385;28;1196;-51
2023/03/21 10:54:45;;;;;;;;;;;;;;;16.92;46.72;100816.38;5029697;28;1988;-51
2023/03/21 10:57:14;;;;;;;;;;;;;;;16.56;47.69;100816.31;4985296;28;1126;-52
2023/03/21 10:59:42;;;;;;;;;;;;;;;15.89;49.28;100821.59;4997823;28;1013;-51
2023/03/21 11:02:13;;;;;;;;;;;;;;;15.66;49.66;100817.38;4997395;28;1137;-51
2023/03/21 11:04:39;;;;;;;;;;;;;;;15.50;50.27;100824.66;4986136;28;1127;-52
2023/03/21 11:07:08;;;;;;;;;;;;;;;15.31;50.77;100822.38;5029217;28;1191;-47
2023/03/21 11:09:47;;;;;;;;;;;;;;;16.43;48.25;100820.41;5028585;28;1282;-54
2023/03/21 11:12:14;;;;;;;;;;;;;;;16.91;46.69;100828.47;4997686;28;1072;-52
2023/03/21 11:14:41;;;;;;;;;;;;;;;16.03;48.86;100822.78;4997647;28;1922;-53
2023/03/21 11:17:16;;;;;;;;;;;;;;;15.70;49.77;100830.28;4997775;28;1123;-53
2023/03/21 11:19:48;;;;;;;;;;;;;;;15.47;50.40;100820.53;5029312;28;1296;-51
2023/03/21 11:22:14;;;;;;;;;;;;;;;16.43;48.30;100814.94;4996121;28;1099;-52
2023/03/21 11:24:39;;;;;;;;;;;;;;;16.99;46.58;100814.16;4977299;28;1296;-51
2023/03/21 11:27:05;;;;;;;;;;;;;;;16.11;48.90;100817.88;4991835;28;1054;-53
2023/03/21 11:29:34;;;;;;;;;;;;;;;15.74;49.58;100809.47;4997226;28;1124;-50
2023/03/21 11:32:01;;;;;;;;;;;;;;;15.57;50.20;100809.66;4996939;28;1033;-53
2023/03/21 11:34:31;;;;;;;;;;;;;;;15.43;50.32;100813.97;5028483;28;1902;-50
2023/03/21 11:36:57;;;;;;;;;;;;;;;15.33;50.87;100803.78;5029046;28;1156;-50
2023/03/21 11:39:30;;;;;;;;;;;;;;;16.55;47.92;100811.91;4997563;28;1128;-52
2023/03/21 11:41:56;;;;;;;;;;;;;;;16.90;46.64;100808.41;4995423;28;1121;-51
2023/03/21 11:44:25;;;;;;;;;;;;;;;16.02;48.85;100804.66;4986656;28;1102;-52
2023/03/21 11:46:51;;;;;;;;;;;;;;;15.69;49.75;100803.94;4997690;28;1101;-50
2023/03/21 11:49:17;;;;;;;;;;;;;;;15.51;50.23;100801.66;4997901;28;1219;-50
2023/03/21 11:51:45;;;;;;;;;;;;;;;15.42;50.72;100800.50;4996782;28;1228;-52
2023/03/21 11:54:14;;;;;;;;;;;;;;;16.96;46.81;100790.00;4996802;28;1993;-52
2023/03/21 11:56:44;;;;;;;;;;;;;;;16.56;47.47;100797.09;4996938;28;1247;-51
2023/03/21 11:59:16;;;;;;;;;;;;;;;15.94;49.02;100794.22;5028256;28;1111;-49
2023/03/21 12:01:41;;;;;;;;;;;;;;;15.65;50.00;100791.03;4996114;28;1164;-52
2023/03/21 12:04:20;;;;;;;;;;;;;;;15.43;50.50;100780.25;4996853;28;1244;-51
2023/03/21 12:06:46;;;;;;;;;;;;;;;15.90;49.45;100776.66;5028632;28;1274;-53
2023/03/21 12:09:18;;;;;;;;;;;;;;;17.30;45.89;100767.41;4996903;28;967;-50
2023/03/21 12:11:51;;;;;;;;;;;;;;;16.37;48.16;100772.94;4996964;28;1156;-52
2023/03/21 12:14:26;;;;;;;;;;;;;;;15.86;49.46;100770.88;4996102;28;1930;-50
2023/03/21 12:16:55;;;;;;;;;;;;;;;15.58;50.08;100766.63;4997567;28;1283;-53
2023/03/21 12:19:33;;;;;;;;;;;;;;;15.46;50.78;100768.75;5028659;28;1140;-52
2023/03/21 12:22:10;;;;;;;;;;;;;;;16.07;49.08;100770.94;5021047;28;1188;-51
2023/03/21 12:24:40;;;;;;;;;;;;;;;17.17;46.38;100770.75;4996606;28;1242;-50
2023/03/21 12:27:11;;;;;;;;;;;;;;;16.12;48.94;100768.22;5028088;28;1259;-52
2023/03/21 12:29:39;;;;;;;;;;;;;;;15.74;49.80;100768.34;4995947;28;1204;-52
2023/03/21 12:32:23;;;;;;;;;;;;;;;15.52;50.23;100770.44;4996483;28;1263;-51
2023/03/21 12:35:07;;;;;;;;;;;;;;;15.36;50.88;100770.34;4996704;28;1921;-52
2023/03/21 12:37:40;;;;;;;;;;;;;;;16.27;48.67;100767.44;4996847;28;1299;-52
2023/03/21 12:40:21;;;;;;;;;;;;;;;16.75;47.17;100750.72;5027892;28;1151;-49
2023/03/21 12:42:49;;;;;;;;;;;;;;;15.89;49.36;100751.16;4996625;28;1211;-53
2023/03/21 12:45:19;;;;;;;;;;;;;;;15.60;50.37;100753.47;4994782;28;1092;-52
2023/03/21 12:47:52;;;;;;;;;;;;;;;15.46;50.52;100760.53;5028368;28;1127;-53
2023/03/21 12:50:20;;;;;;;;;;;;;;;16.14;49.22;100756.97;4996130;28;1107;-52
2023/03/21 12:52:53;;;;;;;;;;;;;;;17.12;46.62;100754.28;5027520;28;1053;-52
2023/03/21 12:55:45;;;;;;;;;;;;;;;16.11;48.97;100755.59;4995893;28;1914;-51
2023/03/21 12:58:13;;;;;;;;;;;;;;;15.66;49.98;100746.91;4989487;28;1814;-50